Time;durP1;ratioP1;P1;durP2;ratioP2;P2;SDS_P1;SDS_P2;PMS_P1;PMS_P2;Temp;Humidity;BMP_temperature;BMP_pressure;BME280_temperature;BME280_humidity;BME280_pressure;Samples;Min_cycle;Max_cycle;Signal;HPM_P1;HPM_P2
2021/01/28 00:00:09;;;;;;;28.67;17.80;;;;;;;6.56;73.73;100292.31;5101548;28;20259;-72
2021/01/28 00:02:34;;;;;;;27.20;18.83;;;;;;;7.00;72.48;100293.06;5100957;28;20168;-72
2021/01/28 00:05:00;;;;;;;25.37;17.83;;;;;;;7.14;72.40;100283.78;5100344;28;20460;-72
2021/01/28 00:07:25;;;;;;;32.93;19.43;;;;;;;7.04;71.94;100293.13;5100575;28;20573;-72
2021/01/28 00:09:51;;;;;;;29.80;19.13;;;;;;;6.17;74.82;100292.38;5100884;28;20202;-71
2021/01/28 00:12:16;;;;;;;26.80;17.07;;;;;;;6.61;73.45;100283.75;5101183;28;20255;-72
2021/01/28 00:14:42;;;;;;;24.53;18.70;;;;;;;6.90;72.75;100281.66;5100975;28;20238;-72
2021/01/28 00:17:07;;;;;;;25.30;18.83;;;;;;;6.76;73.97;100284.00;5100924;28;20176;-72
2021/01/28 00:19:35;;;;;;;25.37;17.47;;;;;;;7.11;73.13;100275.97;5101108;28;20273;-70
2021/01/28 00:22:00;;;;;;;32.90;18.73;;;;;;;6.81;72.90;100274.59;5100712;28;20183;-72
2021/01/28 00:24:25;;;;;;;25.50;18.30;;;;;;;6.90;72.77;100279.06;5108768;28;20422;-72
2021/01/28 00:26:51;;;;;;;26.93;17.70;;;;;;;6.55;74.67;100284.50;5121646;28;20195;-73
2021/01/28 00:29:16;;;;;;;24.13;17.10;;;;;;;7.17;72.15;100277.78;5121153;28;20179;-71
2021/01/28 00:31:41;;;;;;;26.77;18.90;;;;;;;6.74;73.89;100281.41;5119666;28;20176;-71
2021/01/28 00:34:07;;;;;;;24.50;16.80;;;;;;;6.98;72.89;100279.19;5121582;28;20163;-72
2021/01/28 00:36:32;;;;;;;28.00;19.77;;;;;;;7.10;72.38;100275.94;5120907;28;20543;-73
2021/01/28 00:38:57;;;;;;;24.37;16.93;;;;;;;6.62;74.31;100280.31;5120092;28;20167;-73
2021/01/28 00:41:23;;;;;;;27.37;18.97;;;;;;;7.14;72.73;100275.16;5121100;28;20183;-74
2021/01/28 00:43:48;;;;;;;27.70;18.27;;;;;;;6.86;73.18;100278.16;5120787;28;20167;-76
2021/01/28 00:46:13;;;;;;;30.60;17.53;;;;;;;6.66;73.62;100285.56;5120634;28;20477;-74
2021/01/28 00:48:39;;;;;;;23.57;16.60;;;;;;;6.83;73.37;100283.28;5121143;28;20199;-72
2021/01/28 00:51:04;;;;;;;23.37;16.40;;;;;;;6.70;74.29;100278.72;5120568;28;20435;-72
2021/01/28 00:53:30;;;;;;;26.33;17.53;;;;;;;6.97;73.26;100267.97;5120717;28;20175;-72
2021/01/28 00:55:56;;;;;;;22.60;16.27;;;;;;;7.14;72.19;100257.00;5120956;27;20438;-72
2021/01/28 00:58:23;;;;;;;23.17;14.97;;;;;;;6.98;72.85;100255.88;5120571;28;20189;-72
2021/01/28 01:00:49;;;;;;;19.27;13.73;;;;;;;7.25;71.86;100265.81;5120449;28;20186;-72
2021/01/28 01:03:16;;;;;;;20.63;13.70;;;;;;;7.33;71.07;100263.34;5120826;28;20426;-71
2021/01/28 01:05:44;;;;;;;21.33;14.20;;;;;;;7.30;71.84;100273.66;5120422;28;20532;-74
2021/01/28 01:08:13;;;;;;;22.10;14.77;;;;;;;7.46;70.74;100277.38;5120298;28;20437;-74
2021/01/28 01:10:44;;;;;;;21.40;14.63;;;;;;;7.49;70.57;100282.59;5119869;28;20409;-73
2021/01/28 01:13:14;;;;;;;17.07;13.60;;;;;;;7.22;71.67;100300.31;5120258;28;20413;-73
2021/01/28 01:15:39;;;;;;;20.40;14.33;;;;;;;7.25;71.98;100303.00;5119271;28;20460;-76
2021/01/28 01:18:05;;;;;;;21.57;15.57;;;;;;;7.19;71.76;100294.25;5120068;28;20417;-74
2021/01/28 01:20:30;;;;;;;20.30;14.57;;;;;;;7.17;71.38;100296.81;5120046;28;20176;-72
2021/01/28 01:22:56;;;;;;;22.93;16.93;;;;;;;7.00;72.21;100303.44;5120251;28;20396;-72
2021/01/28 01:25:22;;;;;;;23.33;15.70;;;;;;;7.03;72.00;100298.28;5119833;28;20272;-74
2021/01/28 01:27:47;;;;;;;20.17;15.03;;;;;;;7.33;70.89;100307.41;5119983;28;20446;-73
2021/01/28 01:30:15;;;;;;;20.23;15.30;;;;;;;7.19;71.18;100302.03;5120895;28;20453;-71
2021/01/28 01:32:40;;;;;;;21.20;15.30;;;;;;;6.88;72.35;100301.50;5120454;28;20179;-69
2021/01/28 01:35:07;;;;;;;19.67;15.80;;;;;;;6.86;71.97;100304.06;5119008;28;20424;-72
2021/01/28 01:37:32;;;;;;;23.97;16.60;;;;;;;6.90;71.57;100299.78;5119388;28;20224;-73
2021/01/28 01:39:57;;;;;;;19.97;16.00;;;;;;;7.30;70.18;100310.84;5119579;28;20417;-72
2021/01/28 01:42:23;;;;;;;20.13;14.90;;;;;;;7.11;70.24;100301.03;5119513;28;20262;-72
2021/01/28 01:44:48;;;;;;;19.83;15.33;;;;;;;7.18;68.96;100308.91;5119976;28;20197;-71
2021/01/28 01:47:16;;;;;;;18.90;14.20;;;;;;;6.94;69.65;100304.22;5119455;28;20599;-71
2021/01/28 01:49:45;;;;;;;16.30;13.13;;;;;;;7.24;68.64;100302.97;5119449;28;20171;-75
2021/01/28 01:52:11;;;;;;;17.60;13.23;;;;;;;6.82;69.07;100314.31;5119273;28;20410;-77
2021/01/28 01:54:37;;;;;;;22.13;16.60;;;;;;;7.31;68.38;100299.63;5101466;28;20414;-73
2021/01/28 01:57:07;;;;;;;13.57;11.47;;;;;;;6.90;69.24;100315.34;5119301;28;20833;-73
2021/01/28 01:59:47;;;;;;;14.80;11.13;;;;;;;7.09;67.62;100298.41;5119450;28;20228;-75
2021/01/28 02:02:16;;;;;;;16.00;12.00;;;;;;;6.88;68.09;100309.28;5118769;28;20449;-73
2021/01/28 02:04:43;;;;;;;15.23;12.63;;;;;;;6.96;67.84;100305.09;5119321;28;20418;-74
2021/01/28 02:07:11;;;;;;;16.03;12.10;;;;;;;6.90;68.22;100303.28;5118444;28;20463;-73
2021/01/28 02:09:37;;;;;;;15.17;12.07;;;;;;;6.66;69.02;100303.69;5118268;28;20444;-73
2021/01/28 02:12:03;;;;;;;15.10;12.67;;;;;;;6.38;68.63;100310.94;5119699;28;20405;-74
2021/01/28 02:14:29;;;;;;;14.53;9.97;;;;;;;6.31;69.49;100301.31;5118891;28;20504;-73
2021/01/28 02:17:01;;;;;;;14.53;10.87;;;;;;;5.84;69.25;100307.19;5119147;28;20405;-72
2021/01/28 02:19:48;;;;;;;14.93;11.00;;;;;;;6.33;67.93;100306.50;5118810;28;20413;-73
2021/01/28 02:22:16;;;;;;;14.70;10.37;;;;;;;6.18;66.66;100299.31;5118916;28;20422;-73
2021/01/28 02:24:49;;;;;;;15.60;11.17;;;;;;;5.73;68.82;100301.78;5118271;28;20449;-72
2021/01/28 02:27:16;;;;;;;17.87;11.33;;;;;;;5.83;67.83;100294.22;5118779;28;20476;-74
2021/01/28 02:29:42;;;;;;;17.10;11.70;;;;;;;6.09;66.92;100296.53;5118634;28;20424;-72
2021/01/28 02:32:07;;;;;;;15.70;11.57;;;;;;;6.07;67.43;100294.81;5119139;28;20409;-72
2021/01/28 02:34:33;;;;;;;14.77;11.10;;;;;;;5.19;70.64;100292.78;5118538;28;20197;-73
2021/01/28 02:36:58;;;;;;;17.67;11.83;;;;;;;4.68;73.00;100296.69;5118857;28;20164;-72
2021/01/28 02:39:29;;;;;;;16.63;11.97;;;;;;;4.99;71.14;100304.34;5119092;28;20462;-74
2021/01/28 02:42:12;;;;;;;17.50;11.83;;;;;;;4.46;72.44;100313.28;5118724;28;20578;-74
2021/01/28 02:44:38;;;;;;;17.60;12.70;;;;;;;4.90;71.56;100315.31;5118091;28;20413;-74
2021/01/28 02:47:03;;;;;;;17.60;11.87;;;;;;;4.95;70.70;100303.41;5118583;28;20484;-75
2021/01/28 02:49:28;;;;;;;20.30;13.20;;;;;;;5.22;70.43;100310.06;5117797;28;20183;-74
2021/01/28 02:51:53;;;;;;;18.07;11.40;;;;;;;5.65;67.57;100308.50;5118875;28;20167;-75
2021/01/28 02:54:19;;;;;;;17.40;12.37;;;;;;;5.65;68.01;100303.31;5122665;28;20205;-74
2021/01/28 02:56:44;;;;;;;19.80;13.07;;;;;;;5.45;68.70;100309.75;5125453;27;20167;-74
2021/01/28 02:59:12;;;;;;;16.37;11.40;;;;;;;5.20;69.36;100301.44;5125987;27;20160;-74
2021/01/28 03:01:38;;;;;;;23.30;14.17;;;;;;;5.16;69.68;100307.34;5124471;28;20409;-74
2021/01/28 03:04:05;;;;;;;21.53;13.87;;;;;;;5.40;68.54;100310.53;5125527;27;20468;-74
2021/01/28 03:06:30;;;;;;;25.60;14.17;;;;;;;5.29;69.48;100305.94;5125803;27;20532;-72
2021/01/28 03:08:55;;;;;;;19.33;13.27;;;;;;;5.76;68.22;100310.47;5125183;27;20603;-74
2021/01/28 03:11:21;;;;;;;19.17;12.67;;;;;;;5.79;67.84;100307.94;5125119;27;20250;-72
2021/01/28 03:13:46;;;;;;;21.03;12.93;;;;;;;5.70;67.88;100296.53;5125366;27;20261;-72
2021/01/28 03:16:11;;;;;;;19.00;12.00;;;;;;;6.03;66.93;100311.06;5125174;27;20175;-72
2021/01/28 03:18:37;;;;;;;18.13;11.20;;;;;;;6.00;67.08;100313.59;5125310;27;20172;-72
2021/01/28 03:21:02;;;;;;;17.57;11.73;;;;;;;5.95;66.88;100311.72;5125175;27;20257;-71
2021/01/28 03:23:28;;;;;;;18.07;11.87;;;;;;;5.79;66.54;100300.19;5125157;27;20175;-73
2021/01/28 03:25:53;;;;;;;7.77;6.00;;;;;;;13.16;70.64;100275.81;5125197;27;20203;-68
2021/01/28 03:28:18;;;;;;;13.30;10.37;;;;;;;11.75;51.31;100285.25;5125426;27;20171;-74
2021/01/28 03:30:46;;;;;;;13.60;9.20;;;;;;;9.02;55.94;100290.47;5125338;27;20443;-71
2021/01/28 03:33:15;;;;;;;10.40;9.27;;;;;;;7.50;59.67;100300.78;5125617;27;20167;-71
2021/01/28 03:35:41;;;;;;;14.13;10.00;;;;;;;6.77;62.42;100310.81;5125138;27;20724;-71
2021/01/28 03:38:07;;;;;;;12.10;9.17;;;;;;;6.55;63.23;100313.00;5125222;27;20501;-71
2021/01/28 03:40:33;;;;;;;16.10;10.80;;;;;;;6.21;63.82;100300.25;5125263;27;20159;-70
2021/01/28 03:42:58;;;;;;;13.53;9.80;;;;;;;6.13;64.84;100307.00;5125026;27;20413;-71
2021/01/28 03:45:24;;;;;;;15.20;10.23;;;;;;;5.85;65.94;100310.66;5124878;27;20474;-71
2021/01/28 03:47:50;;;;;;;13.90;10.10;;;;;;;6.15;64.81;100313.06;5125542;27;20160;-72
2021/01/28 03:50:18;;;;;;;13.77;10.60;;;;;;;6.08;64.98;100313.78;5124839;27;20434;-71
2021/01/28 03:52:44;;;;;;;16.43;10.93;;;;;;;6.01;65.62;100306.75;5124962;27;20552;-71
2021/01/28 03:55:10;;;;;;;17.07;12.07;;;;;;;5.70;67.00;100301.72;5125459;27;20401;-71
2021/01/28 03:57:35;;;;;;;14.20;10.57;;;;;;;5.78;66.85;100308.75;5124920;27;20175;-71
2021/01/28 04:00:01;;;;;;;18.70;12.63;;;;;;;5.89;66.32;100303.00;5124739;27;20497;-71
2021/01/28 04:02:29;;;;;;;15.20;10.90;;;;;;;5.82;66.14;100308.88;5125465;27;20270;-71
2021/01/28 04:04:54;;;;;;;16.80;10.00;;;;;;;5.60;67.10;100299.75;5123930;28;20167;-70
2021/01/28 04:07:19;;;;;;;16.93;11.40;;;;;;;5.97;66.10;100302.31;5121429;28;20465;-71
2021/01/28 04:09:45;;;;;;;14.27;10.20;;;;;;;5.52;66.72;100319.38;5122145;28;20213;-71
2021/01/28 04:12:10;;;;;;;15.33;11.20;;;;;;;5.18;68.82;100310.84;5121701;28;20175;-71
2021/01/28 04:14:35;;;;;;;13.93;10.40;;;;;;;5.47;67.41;100311.53;5120663;28;20230;-71
2021/01/28 04:17:01;;;;;;;16.10;10.70;;;;;;;5.44;66.81;100315.75;5121772;28;20175;-71
2021/01/28 04:19:26;;;;;;;16.50;11.23;;;;;;;5.44;67.08;100320.94;5121757;28;20185;-71
2021/01/28 04:21:51;;;;;;;13.70;10.37;;;;;;;5.00;67.65;100317.28;5121378;28;20205;-70
2021/01/28 04:24:17;;;;;;;13.90;10.50;;;;;;;5.17;67.92;100315.13;5121840;28;20167;-71
2021/01/28 04:26:43;;;;;;;19.53;10.80;;;;;;;4.95;68.05;100297.34;5121564;28;20242;-71
2021/01/28 04:29:09;;;;;;;17.43;11.00;;;;;;;5.19;67.26;100307.41;5122030;28;20257;-71
2021/01/28 04:31:34;;;;;;;15.40;11.60;;;;;;;5.50;66.42;100305.56;5122279;28;20416;-71
2021/01/28 04:33:59;;;;;;;15.03;11.10;;;;;;;4.89;68.63;100298.06;5122796;28;20182;-71
2021/01/28 04:36:25;;;;;;;13.90;9.90;;;;;;;5.55;66.01;100307.41;5122803;28;20172;-72
2021/01/28 04:38:51;;;;;;;16.40;10.80;;;;;;;5.19;66.28;100302.25;5121587;28;20181;-72
2021/01/28 04:41:23;;;;;;;14.63;10.60;;;;;;;5.17;66.97;100309.97;5120863;28;20173;-71
2021/01/28 04:43:50;;;;;;;12.00;8.80;;;;;;;5.40;65.45;100302.78;5120129;28;20439;-72
2021/01/28 04:46:24;;;;;;;12.77;9.53;;;;;;;5.02;66.09;100299.25;5121134;28;20754;-73
2021/01/28 04:48:50;;;;;;;13.87;8.10;;;;;;;5.04;65.01;100298.44;5120174;28;20441;-71
2021/01/28 04:51:15;;;;;;;10.93;9.00;;;;;;;5.27;64.65;100295.56;5120828;28;20490;-71
2021/01/28 04:53:46;;;;;;;8.17;7.30;;;;;;;5.45;63.78;100289.06;5121497;28;20167;-70
2021/01/28 04:56:14;;;;;;;11.67;8.67;;;;;;;5.26;63.96;100287.78;5121429;28;20254;-71
2021/01/28 04:58:40;;;;;;;12.10;9.07;;;;;;;4.98;65.63;100293.13;5121094;28;20413;-71
2021/01/28 05:01:05;;;;;;;11.00;8.50;;;;;;;5.40;64.71;100296.75;5120849;28;20451;-71
2021/01/28 05:03:36;;;;;;;10.83;8.77;;;;;;;5.48;64.42;100304.66;5120527;28;20211;-71
2021/01/28 05:06:01;;;;;;;14.30;10.50;;;;;;;5.70;64.27;100295.69;5120483;28;20191;-71
2021/01/28 05:08:27;;;;;;;11.20;9.00;;;;;;;5.44;64.43;100295.06;5120091;28;20896;-70
2021/01/28 05:10:57;;;;;;;13.93;10.67;;;;;;;5.55;65.19;100280.69;5120302;28;20175;-71
2021/01/28 05:13:31;;;;;;;16.70;12.80;;;;;;;5.16;64.63;100281.50;5120384;28;20210;-71
2021/01/28 05:15:58;;;;;;;11.50;8.80;;;;;;;5.20;64.61;100289.38;5120270;28;20887;-72
2021/01/28 05:18:35;;;;;;;13.23;10.27;;;;;;;5.14;64.46;100285.75;5120034;28;20414;-71
2021/01/28 05:21:08;;;;;;;12.00;9.27;;;;;;;5.32;64.87;100293.97;5120006;28;20522;-71
2021/01/28 05:23:36;;;;;;;10.83;9.00;;;;;;;5.20;65.13;100294.53;5119348;28;20417;-71
2021/01/28 05:26:03;;;;;;;11.77;8.73;;;;;;;5.20;64.92;100299.69;5119481;28;20465;-69
2021/01/28 05:28:36;;;;;;;10.97;8.90;;;;;;;5.34;65.26;100297.44;5119264;28;20470;-72
2021/01/28 05:31:01;;;;;;;12.80;9.63;;;;;;;4.67;66.57;100291.50;5120722;28;20810;-71
2021/01/28 05:33:38;;;;;;;13.10;9.83;;;;;;;4.96;65.28;100289.63;5120215;28;20455;-71
2021/01/28 05:36:24;;;;;;;11.73;8.77;;;;;;;5.06;64.74;100289.03;5119297;28;20452;-71
2021/01/28 05:38:52;;;;;;;14.53;10.23;;;;;;;4.93;66.21;100286.97;5118865;28;20445;-71
2021/01/28 05:41:28;;;;;;;12.87;9.60;;;;;;;4.72;66.33;100290.78;5119072;28;20717;-71
2021/01/28 05:43:53;;;;;;;11.37;8.40;;;;;;;4.67;65.92;100297.50;5119639;28;20420;-71
2021/01/28 05:46:28;;;;;;;10.57;8.37;;;;;;;4.55;65.33;100292.03;5119636;28;20464;-71
2021/01/28 05:49:01;;;;;;;10.90;8.83;;;;;;;4.77;65.38;100297.75;5119646;28;20175;-70
2021/01/28 05:51:35;;;;;;;10.20;8.33;;;;;;;4.85;64.76;100291.09;5119581;28;20409;-71
2021/01/28 05:54:07;;;;;;;12.67;9.17;;;;;;;4.82;64.58;100288.44;5118992;28;20504;-71
2021/01/28 05:56:48;;;;;;;10.37;7.80;;;;;;;5.06;63.55;100280.44;5119632;28;20417;-71
2021/01/28 05:59:21;;;;;;;13.00;8.67;;;;;;;4.90;64.23;100274.00;5118677;28;20794;-71
2021/01/28 06:02:05;;;;;;;22.63;14.53;;;;;;;4.95;64.37;100275.00;5118575;28;20413;-70
2021/01/28 06:04:43;;;;;;;12.83;9.60;;;;;;;4.81;65.71;100271.19;5119565;28;20701;-71
2021/01/28 06:07:49;;;;;;;13.60;9.70;;;;;;;5.21;64.40;100264.41;5118555;28;20718;-70
2021/01/28 06:10:40;;;;;;;14.70;10.10;;;;;;;4.84;66.32;100260.91;5116483;28;20435;-71
2021/01/28 06:13:13;;;;;;;16.00;9.13;;;;;;;4.98;65.07;100256.97;5119219;28;20413;-71
2021/01/28 06:16:07;;;;;;;16.07;10.40;;;;;;;4.95;65.99;100249.16;5118127;28;20449;-72
2021/01/28 06:19:11;;;;;;;13.97;10.23;;;;;;;4.73;66.35;100250.31;5119041;28;20409;-71
2021/01/28 06:21:51;;;;;;;23.53;15.93;;;;;;;4.58;67.59;100244.78;5119036;28;20413;-71
2021/01/28 06:24:38;;;;;;;25.93;16.63;;;;;;;4.44;67.79;100237.53;5118901;28;20425;-71
2021/01/28 06:27:36;;;;;;;14.63;9.87;;;;;;;4.38;67.56;100238.25;5118060;28;20460;-71
2021/01/28 06:30:13;;;;;;;12.90;9.43;;;;;;;4.13;67.65;100238.44;5112083;28;20413;-71
2021/01/28 06:33:12;;;;;;;12.43;8.67;;;;;;;4.21;67.05;100239.50;5118975;28;20488;-70
2021/01/28 06:35:44;;;;;;;17.20;10.63;;;;;;;4.38;66.80;100233.09;5118846;28;20397;-72
2021/01/28 06:38:31;;;;;;;12.20;8.97;;;;;;;4.88;64.92;100244.66;5118878;28;20397;-71
2021/01/28 06:41:02;;;;;;;14.00;8.83;;;;;;;4.74;64.80;100244.31;5118660;28;20489;-71
2021/01/28 06:43:38;;;;;;;12.13;8.90;;;;;;;4.58;65.61;100235.31;5118738;28;20409;-71
2021/01/28 06:46:13;;;;;;;12.47;8.77;;;;;;;4.33;65.45;100231.19;5118074;28;20460;-70
2021/01/28 06:48:42;;;;;;;13.10;9.57;;;;;;;4.44;65.58;100234.97;5118501;28;20412;-71
2021/01/28 06:51:19;;;;;;;12.83;9.40;;;;;;;4.57;65.90;100232.69;5118524;28;20416;-71
2021/01/28 06:53:51;;;;;;;10.83;8.90;;;;;;;4.37;66.19;100241.66;5118153;28;20413;-71
2021/01/28 06:56:42;;;;;;;12.80;9.93;;;;;;;4.33;65.54;100237.25;5118149;28;20806;-71
2021/01/28 06:59:20;;;;;;;14.10;9.23;;;;;;;4.35;66.22;100227.81;5118581;28;20389;-71
2021/01/28 07:02:05;;;;;;;11.77;9.40;;;;;;;4.52;65.41;100225.69;5117774;28;20413;-71
2021/01/28 07:04:48;;;;;;;11.37;10.00;;;;;;;4.32;66.88;100229.47;5117853;28;20413;-71
2021/01/28 07:07:18;;;;;;;12.50;9.47;;;;;;;4.54;65.49;100218.00;5117942;28;20492;-70
2021/01/28 07:09:50;;;;;;;13.50;9.80;;;;;;;4.81;64.68;100219.53;5117966;28;20459;-72
2021/01/28 07:12:20;;;;;;;14.43;10.50;;;;;;;4.54;65.94;100215.41;5117954;28;20851;-71
2021/01/28 07:14:49;;;;;;;15.93;10.40;;;;;;;4.64;65.29;100209.66;5117728;28;20445;-71
2021/01/28 07:17:31;;;;;;;13.73;10.17;;;;;;;4.22;66.75;100221.47;5118406;28;20409;-70
2021/01/28 07:19:58;;;;;;;14.17;10.20;;;;;;;4.31;66.15;100223.41;5118248;28;20417;-71
2021/01/28 07:22:31;;;;;;;14.10;10.00;;;;;;;4.11;67.11;100219.44;5117662;28;20397;-72
2021/01/28 07:24:57;;;;;;;13.70;10.60;;;;;;;3.45;68.79;100228.72;5117677;28;20413;-72
2021/01/28 07:28:00;;;;;;;15.73;10.60;;;;;;;3.68;68.66;100219.97;5118208;28;20468;-71
2021/01/28 07:30:45;;;;;;;17.90;11.73;;;;;;;3.88;69.71;100214.50;5118092;28;20416;-70
2021/01/28 07:33:25;;;;;;;17.27;11.70;;;;;;;4.07;67.99;100215.03;5118211;28;20409;-71
2021/01/28 07:35:55;;;;;;;17.57;11.77;;;;;;;3.97;68.45;100224.22;5118398;28;20408;-71
2021/01/28 07:38:26;;;;;;;15.97;10.40;;;;;;;3.69;68.60;100224.31;5118015;28;20432;-71
2021/01/28 07:41:07;;;;;;;16.97;13.43;;;;;;;3.90;68.12;100236.06;5119681;28;20465;-71
2021/01/28 07:43:35;;;;;;;12.63;10.20;;;;;;;4.13;67.17;100222.94;5121788;28;20420;-71
2021/01/28 07:46:12;;;;;;;16.70;10.37;;;;;;;4.37;67.88;100221.00;5121780;28;20758;-71
2021/01/28 07:48:39;;;;;;;15.17;12.07;;;;;;;4.50;65.62;100218.75;5121721;28;20766;-72
2021/01/28 07:51:30;;;;;;;14.20;11.10;;;;;;;4.28;65.93;100238.81;5120996;28;20412;-71
2021/01/28 07:53:56;;;;;;;15.60;10.50;;;;;;;4.33;65.86;100229.50;5121899;28;20401;-72
2021/01/28 07:56:39;;;;;;;17.87;9.70;;;;;;;4.08;66.04;100237.41;5121904;28;20402;-72
2021/01/28 07:59:20;;;;;;;22.30;12.30;;;;;;;4.01;66.61;100239.81;5121688;28;20528;-72
2021/01/28 08:01:47;;;;;;;15.00;11.00;;;;;;;4.47;65.09;100235.03;5120672;28;20430;-72
2021/01/28 08:04:27;;;;;;;12.90;9.77;;;;;;;4.21;65.30;100236.94;5120648;28;20413;-71
2021/01/28 08:06:54;;;;;;;12.30;9.70;;;;;;;4.12;65.49;100231.50;5121421;28;20453;-71
2021/01/28 08:09:19;;;;;;;11.80;8.80;;;;;;;4.34;64.81;100233.84;5120585;28;20490;-72
2021/01/28 08:11:48;;;;;;;12.50;10.23;;;;;;;4.45;63.94;100235.81;5121671;28;20716;-73
2021/01/28 08:14:14;;;;;;;17.80;9.33;;;;;;;4.48;64.63;100228.16;5120557;28;20211;-72
2021/01/28 08:16:40;;;;;;;11.70;9.93;;;;;;;4.76;63.11;100218.53;5121190;28;20416;-72
2021/01/28 08:19:10;;;;;;;11.57;9.30;;;;;;;4.34;63.79;100232.94;5121564;28;20163;-70
2021/01/28 08:21:35;;;;;;;11.70;9.20;;;;;;;3.80;65.18;100228.88;5120963;28;20461;-70
2021/01/28 08:24:34;;;;;;;10.33;9.23;;;;;;;3.76;64.70;100227.94;5120736;28;20779;-71
2021/01/28 08:27:09;;;;;;;12.53;9.57;;;;;;;3.97;65.26;100225.09;5121042;28;20223;-72
2021/01/28 08:29:34;;;;;;;11.37;9.20;;;;;;;4.29;63.19;100222.53;5121220;28;20765;-71
2021/01/28 08:32:01;;;;;;;10.70;8.87;;;;;;;3.98;63.50;100220.81;5120340;28;20500;-71
2021/01/28 08:34:28;;;;;;;10.13;8.87;;;;;;;4.57;62.65;100212.91;5121179;28;20191;-72
2021/01/28 08:37:02;;;;;;;11.40;9.60;;;;;;;5.21;60.09;100213.59;5121409;28;20409;-72
2021/01/28 08:39:30;;;;;;;12.77;10.30;;;;;;;5.36;59.67;100215.66;5113351;28;20429;-71
2021/01/28 08:42:05;;;;;;;13.10;10.53;;;;;;;4.99;60.08;100214.81;5102394;28;20899;-72
2021/01/28 08:44:31;;;;;;;11.70;10.07;;;;;;;5.77;57.83;100208.75;5109553;28;20507;-70
2021/01/28 08:47:28;;;;;;;12.70;9.73;;;;;;;6.07;56.79;100217.16;5120394;28;20554;-72
2021/01/28 08:50:15;;;;;;;10.97;9.77;;;;;;;5.83;57.63;100208.88;5091693;28;20530;-69
2021/01/28 08:52:42;;;;;;;10.80;9.70;;;;;;;5.96;57.00;100217.75;5106520;28;20421;-70
2021/01/28 08:55:34;;;;;;;10.80;9.50;;;;;;;5.54;58.22;100209.13;5120363;28;20413;-71
2021/01/28 08:58:06;;;;;;;12.10;10.63;;;;;;;5.66;57.84;100205.94;5120354;28;20414;-70
2021/01/28 09:00:31;;;;;;;11.37;9.80;;;;;;;4.89;59.57;100213.69;5119682;28;20809;-70
2021/01/28 09:02:57;;;;;;;15.93;10.63;;;;;;;4.80;59.94;100203.13;5119810;28;20467;-69
2021/01/28 09:05:28;;;;;;;12.90;10.20;;;;;;;4.72;60.59;100197.81;5120244;28;20186;-71
2021/01/28 09:07:55;;;;;;;11.87;10.33;;;;;;;4.72;60.59;100200.38;5119338;28;20877;-70
2021/01/28 09:10:26;;;;;;;14.00;10.27;;;;;;;5.10;59.31;100203.84;5120070;28;20448;-71
2021/01/28 09:12:52;;;;;;;12.33;10.17;;;;;;;4.97;59.72;100203.56;5120325;28;20401;-70
2021/01/28 09:15:23;;;;;;;10.67;9.57;;;;;;;4.25;61.84;100184.56;5120137;28;20881;-70
2021/01/28 09:17:50;;;;;;;9.67;8.60;;;;;;;3.54;63.33;100182.59;5120417;28;20160;-68
2021/01/28 09:20:30;;;;;;;10.87;8.33;;;;;;;4.02;60.35;100182.25;5119866;28;20646;-70
2021/01/28 09:23:10;;;;;;;8.77;7.90;;;;;;;3.71;62.97;100176.22;5119243;28;20402;-69
2021/01/28 09:25:36;;;;;;;10.13;8.80;;;;;;;3.66;61.91;100164.91;5119433;28;20444;-70
2021/01/28 09:28:08;;;;;;;9.70;8.20;;;;;;;4.18;61.01;100162.00;5119981;28;20409;-70
2021/01/28 09:30:36;;;;;;;10.10;8.47;;;;;;;5.00;59.01;100164.00;5119032;28;20436;-68
2021/01/28 09:33:34;;;;;;;8.43;7.53;;;;;;;6.20;54.28;100142.34;5119970;28;20417;-70
2021/01/28 09:36:17;;;;;;;9.63;8.47;;;;;;;7.00;51.66;100146.19;5119746;28;20434;-70
2021/01/28 09:39:06;;;;;;;8.70;7.83;;;;;;;6.51;52.97;100148.91;5120102;28;20829;-69
2021/01/28 09:41:50;;;;;;;8.33;7.30;;;;;;;4.66;55.31;100139.97;5119644;28;20426;-69
2021/01/28 09:44:36;;;;;;;8.10;7.27;;;;;;;3.47;59.73;100140.31;5118843;28;20822;-69
2021/01/28 09:47:11;;;;;;;8.00;7.20;;;;;;;3.87;60.52;100145.72;5118766;28;20448;-69
2021/01/28 09:49:36;;;;;;;8.37;7.57;;;;;;;4.62;58.23;100133.88;5118664;28;20810;-70
2021/01/28 09:52:01;;;;;;;10.20;7.43;;;;;;;3.05;63.00;100134.78;5119238;28;20409;-69
2021/01/28 09:54:33;;;;;;;10.20;7.10;;;;;;;4.35;59.28;100134.94;5118480;28;20164;-69
2021/01/28 09:56:59;;;;;;;8.50;7.53;;;;;;;5.60;56.37;100144.59;5119699;28;20156;-68
2021/01/28 09:59:24;;;;;;;8.30;7.50;;;;;;;5.69;55.33;100142.22;5119435;28;20496;-71
2021/01/28 10:01:49;;;;;;;8.77;7.87;;;;;;;4.32;59.95;100145.19;5119190;28;20187;-70
2021/01/28 10:04:14;;;;;;;9.67;7.47;;;;;;;4.83;57.75;100151.59;5119441;28;20473;-70
2021/01/28 10:06:40;;;;;;;8.13;7.33;;;;;;;5.23;56.74;100154.19;5119087;28;20286;-72
2021/01/28 10:09:07;;;;;;;7.80;7.00;;;;;;;3.63;59.82;100159.69;5119065;28;20213;-74
2021/01/28 10:11:32;;;;;;;8.60;7.20;;;;;;;4.95;57.74;100158.75;5119456;27;20533;-73
2021/01/28 10:13:59;;;;;;;7.63;6.77;;;;;;;3.97;60.00;100157.16;5119084;28;20552;-73
2021/01/28 10:16:26;;;;;;;8.40;7.60;;;;;;;4.95;57.80;100153.59;5118898;28;20177;-72
2021/01/28 10:18:51;;;;;;;8.83;7.53;;;;;;;3.52;61.04;100155.94;5119222;28;20409;-73
2021/01/28 10:21:16;;;;;;;9.30;6.53;;;;;;;5.61;55.75;100148.94;5118970;28;20470;-72
2021/01/28 10:23:42;;;;;;;7.67;6.97;;;;;;;5.80;54.10;100152.75;5118976;28;20513;-74
2021/01/28 10:26:07;;;;;;;7.13;6.20;;;;;;;4.20;56.87;100147.44;5119334;28;20553;-74
2021/01/28 10:28:32;;;;;;;7.30;6.60;;;;;;;5.50;53.23;100150.44;5119295;28;20178;-72
2021/01/28 10:30:59;;;;;;;6.50;5.90;;;;;;;6.03;53.16;100147.19;5120829;28;20182;-71
2021/01/28 10:33:27;;;;;;;6.80;6.20;;;;;;;5.93;52.88;100147.81;5121418;28;20175;-74
2021/01/28 10:35:52;;;;;;;6.33;5.80;;;;;;;3.44;58.39;100155.69;5117980;28;20409;-73
2021/01/28 10:38:17;;;;;;;7.60;6.80;;;;;;;3.93;59.02;100145.03;5118746;28;20449;-74
2021/01/28 10:40:43;;;;;;;8.03;6.03;;;;;;;5.40;53.34;100134.75;5118898;28;20171;-74
2021/01/28 10:43:08;;;;;;;7.80;7.00;;;;;;;4.65;55.44;100136.50;5118699;28;20176;-73
2021/01/28 10:45:35;;;;;;;6.93;6.20;;;;;;;4.77;56.43;100138.50;5118833;28;20175;-73
2021/01/28 10:48:03;;;;;;;7.80;6.70;;;;;;;4.49;56.89;100143.03;5118974;28;20269;-72
2021/01/28 10:50:30;;;;;;;8.13;6.90;;;;;;;4.21;56.59;100136.31;5118782;28;20413;-74
2021/01/28 10:52:55;;;;;;;7.07;6.20;;;;;;;3.74;57.71;100148.81;5117961;28;20417;-74
2021/01/28 10:55:22;;;;;;;7.70;6.97;;;;;;;3.39;60.50;100140.94;5119167;28;20409;-73
2021/01/28 10:57:48;;;;;;;13.83;7.43;;;;;;;4.54;57.38;100136.25;5118700;28;20245;-71
2021/01/28 11:00:14;;;;;;;7.50;6.80;;;;;;;4.74;56.94;100135.88;5118312;28;20495;-71
2021/01/28 11:02:39;;;;;;;7.87;7.17;;;;;;;4.83;55.51;100136.09;5118754;28;20517;-70
2021/01/28 11:05:07;;;;;;;9.63;6.40;;;;;;;4.63;56.54;100135.63;5118326;28;20504;-71
2021/01/28 11:07:33;;;;;;;7.20;6.47;;;;;;;5.17;54.68;100118.75;5118273;28;20210;-72
2021/01/28 11:09:58;;;;;;;14.30;6.80;;;;;;;4.19;57.19;100123.38;5118959;28;20401;-71
2021/01/28 11:12:24;;;;;;;7.27;6.57;;;;;;;3.90;57.49;100121.72;5118440;28;20250;-71
2021/01/28 11:14:49;;;;;;;7.67;6.37;;;;;;;4.19;57.25;100110.47;5119326;28;20250;-70
2021/01/28 11:17:14;;;;;;;7.00;5.70;;;;;;;4.57;55.41;100091.56;5123029;28;20471;-70
2021/01/28 11:19:40;;;;;;;6.90;6.20;;;;;;;3.88;58.23;100107.09;5122112;28;20273;-70
2021/01/28 11:22:05;;;;;;;7.93;6.30;;;;;;;4.50;56.04;100103.47;5122384;28;20519;-69
2021/01/28 11:24:30;;;;;;;7.50;6.80;;;;;;;4.48;54.59;100097.41;5122839;28;20197;-71
2021/01/28 11:26:57;;;;;;;6.67;6.00;;;;;;;4.77;55.23;100097.19;5122185;28;20208;-71
2021/01/28 11:29:24;;;;;;;8.30;6.03;;;;;;;3.88;56.79;100098.47;5122190;28;20163;-69
2021/01/28 11:31:51;;;;;;;7.07;6.03;;;;;;;3.75;58.48;100093.81;5122521;28;20412;-71
2021/01/28 11:34:16;;;;;;;7.40;6.60;;;;;;;4.80;56.19;100080.91;5122068;28;20412;-69